sensor_id;sensor_type;location;lat;lon;timestamp;P1;durP1;ratioP1;P2;durP2;ratioP2
65358;SDS011;52491;45.900;6.346;2024-02-23T00:01:28;1.45;;;1.05;;
65358;SDS011;52491;45.900;6.346;2024-02-23T00:03:54;1.63;;;1.30;;
65358;SDS011;52491;45.900;6.346;2024-02-23T00:06:20;1.80;;;1.38;;
65358;SDS011;52491;45.900;6.346;2024-02-23T00:08:48;1.75;;;1.38;;
65358;SDS011;52491;45.900;6.346;2024-02-23T00:11:14;1.77;;;1.10;;
65358;SDS011;52491;45.900;6.346;2024-02-23T00:13:39;1.80;;;1.30;;
65358;SDS011;52491;45.900;6.346;2024-02-23T00:16:05;2.53;;;1.38;;
65358;SDS011;52491;45.900;6.346;2024-02-23T00:18:31;1.65;;;1.20;;
65358;SDS011;52491;45.900;6.346;2024-02-23T00:20:57;2.30;;;1.67;;
65358;SDS011;52491;45.900;6.346;2024-02-23T00:23:22;1.80;;;1.45;;
65358;SDS011;52491;45.900;6.346;2024-02-23T00:25:48;1.25;;;1.15;;
65358;SDS011;52491;45.900;6.346;2024-02-23T00:28:14;1.20;;;1.10;;
65358;SDS011;52491;45.900;6.346;2024-02-23T00:30:40;2.40;;;1.40;;
65358;SDS011;52491;45.900;6.346;2024-02-23T00:33:05;1.33;;;0.93;;
65358;SDS011;52491;45.900;6.346;2024-02-23T00:35:31;1.40;;;0.98;;
65358;SDS011;52491;45.900;6.346;2024-02-23T00:37:57;2.15;;;1.20;;
65358;SDS011;52491;45.900;6.346;2024-02-23T00:40:22;1.42;;;1.08;;
65358;SDS011;52491;45.900;6.346;2024-02-23T00:42:49;1.92;;;1.25;;
65358;SDS011;52491;45.900;6.346;2024-02-23T00:45:14;1.83;;;1.25;;
65358;SDS011;52491;45.900;6.346;2024-02-23T00:47:40;1.77;;;1.10;;
65358;SDS011;52491;45.900;6.346;2024-02-23T00:50:06;1.48;;;1.25;;
65358;SDS011;52491;45.900;6.346;2024-02-23T00:52:32;1.52;;;1.08;;
65358;SDS011;52491;45.900;6.346;2024-02-23T00:54:58;1.90;;;1.30;;
65358;SDS011;52491;45.900;6.346;2024-02-23T00:57:23;2.03;;;1.45;;
65358;SDS011;52491;45.900;6.346;2024-02-23T00:59:56;2.05;;;1.00;;
65358;SDS011;52491;45.900;6.346;2024-02-23T01:02:22;2.17;;;1.55;;
65358;SDS011;52491;45.900;6.346;2024-02-23T01:04:47;1.58;;;1.48;;
65358;SDS011;52491;45.900;6.346;2024-02-23T01:07:13;1.50;;;1.00;;
65358;SDS011;52491;45.900;6.346;2024-02-23T01:09:39;1.08;;;0.98;;
65358;SDS011;52491;45.900;6.346;2024-02-23T01:12:04;1.30;;;1.00;;
65358;SDS011;52491;45.900;6.346;2024-02-23T01:14:31;1.20;;;0.95;;
65358;SDS011;52491;45.900;6.346;2024-02-23T01:16:56;1.65;;;1.10;;
65358;SDS011;52491;45.900;6.346;2024-02-23T01:19:22;1.10;;;0.85;;
65358;SDS011;52491;45.900;6.346;2024-02-23T01:21:49;1.83;;;1.20;;
65358;SDS011;52491;45.900;6.346;2024-02-23T01:24:21;1.08;;;0.80;;
65358;SDS011;52491;45.900;6.346;2024-02-23T01:26:47;2.03;;;1.55;;
65358;SDS011;52491;45.900;6.346;2024-02-23T01:29:12;1.58;;;1.00;;
65358;SDS011;52491;45.900;6.346;2024-02-23T01:31:38;0.75;;;0.57;;
65358;SDS011;52491;45.900;6.346;2024-02-23T01:34:04;1.42;;;1.00;;
65358;SDS011;52491;45.900;6.346;2024-02-23T01:36:29;2.78;;;1.00;;
65358;SDS011;52491;45.900;6.346;2024-02-23T01:38:55;1.40;;;0.98;;
65358;SDS011;52491;45.900;6.346;2024-02-23T01:41:21;1.33;;;0.85;;
65358;SDS011;52491;45.900;6.346;2024-02-23T01:43:46;1.80;;;1.45;;
65358;SDS011;52491;45.900;6.346;2024-02-23T01:46:12;1.48;;;1.17;;
65358;SDS011;52491;45.900;6.346;2024-02-23T01:48:39;1.27;;;1.00;;
65358;SDS011;52491;45.900;6.346;2024-02-23T01:51:04;1.65;;;1.10;;
65358;SDS011;52491;45.900;6.346;2024-02-23T01:53:30;1.00;;;0.77;;
65358;SDS011;52491;45.900;6.346;2024-02-23T01:55:56;1.70;;;0.82;;
65358;SDS011;52491;45.900;6.346;2024-02-23T01:58:23;1.00;;;0.80;;
65358;SDS011;52491;45.900;6.346;2024-02-23T02:00:49;1.83;;;1.27;;
65358;SDS011;52491;45.900;6.346;2024-02-23T02:03:15;1.17;;;0.77;;
65358;SDS011;52491;45.900;6.346;2024-02-23T02:05:41;0.95;;;0.85;;
65358;SDS011;52491;45.900;6.346;2024-02-23T02:08:07;1.48;;;1.00;;
65358;SDS011;52491;45.900;6.346;2024-02-23T02:10:32;0.90;;;0.77;;
65358;SDS011;52491;45.900;6.346;2024-02-23T02:15:25;1.00;;;0.85;;
65358;SDS011;52491;45.900;6.346;2024-02-23T02:17:51;1.02;;;0.90;;
65358;SDS011;52491;45.900;6.346;2024-02-23T02:20:17;1.00;;;0.90;;
65358;SDS011;52491;45.900;6.346;2024-02-23T02:22:43;1.83;;;1.20;;
65358;SDS011;52491;45.900;6.346;2024-02-23T02:25:09;0.70;;;0.65;;
65358;SDS011;52491;45.900;6.346;2024-02-23T02:27:34;0.95;;;0.70;;
65358;SDS011;52491;45.900;6.346;2024-02-23T02:30:01;1.20;;;0.93;;
65358;SDS011;52491;45.900;6.346;2024-02-23T02:32:26;2.47;;;0.98;;
65358;SDS011;52491;45.900;6.346;2024-02-23T02:34:52;1.40;;;0.80;;
65358;SDS011;52491;45.900;6.346;2024-02-23T02:37:18;0.90;;;0.85;;
65358;SDS011;52491;45.900;6.346;2024-02-23T02:39:43;0.90;;;0.68;;
65358;SDS011;52491;45.900;6.346;2024-02-23T02:42:09;1.58;;;1.00;;
65358;SDS011;52491;45.900;6.346;2024-02-23T02:44:35;1.75;;;1.20;;
65358;SDS011;52491;45.900;6.346;2024-02-23T02:47:00;1.13;;;0.82;;
65358;SDS011;52491;45.900;6.346;2024-02-23T02:49:26;1.30;;;0.80;;
65358;SDS011;52491;45.900;6.346;2024-02-23T02:51:52;1.42;;;0.82;;
65358;SDS011;52491;45.900;6.346;2024-02-23T02:54:17;0.65;;;0.65;;
65358;SDS011;52491;45.900;6.346;2024-02-23T02:56:43;0.75;;;0.70;;
65358;SDS011;52491;45.900;6.346;2024-02-23T02:59:11;0.93;;;0.80;;
65358;SDS011;52491;45.900;6.346;2024-02-23T03:01:37;1.23;;;0.80;;
65358;SDS011;52491;45.900;6.346;2024-02-23T03:04:04;1.13;;;0.90;;
65358;SDS011;52491;45.900;6.346;2024-02-23T03:06:30;0.80;;;0.75;;
65358;SDS011;52491;45.900;6.346;2024-02-23T03:08:55;0.65;;;0.63;;
65358;SDS011;52491;45.900;6.346;2024-02-23T03:11:21;2.15;;;1.00;;
65358;SDS011;52491;45.900;6.346;2024-02-23T03:13:47;0.88;;;0.80;;
65358;SDS011;52491;45.900;6.346;2024-02-23T03:18:40;0.80;;;0.70;;
65358;SDS011;52491;45.900;6.346;2024-02-23T03:21:06;1.00;;;0.77;;
65358;SDS011;52491;45.900;6.346;2024-02-23T03:23:32;1.08;;;0.68;;
65358;SDS011;52491;45.900;6.346;2024-02-23T03:25:57;1.17;;;0.70;;
65358;SDS011;52491;45.900;6.346;2024-02-23T03:28:23;1.25;;;0.98;;
65358;SDS011;52491;45.900;6.346;2024-02-23T03:30:48;1.08;;;0.90;;
65358;SDS011;52491;45.900;6.346;2024-02-23T03:33:14;1.40;;;0.93;;
65358;SDS011;52491;45.900;6.346;2024-02-23T03:35:40;0.70;;;0.70;;
65358;SDS011;52491;45.900;6.346;2024-02-23T03:38:05;0.57;;;0.50;;
65358;SDS011;52491;45.900;6.346;2024-02-23T03:40:31;0.70;;;0.60;;
65358;SDS011;52491;45.900;6.346;2024-02-23T03:42:58;0.50;;;0.50;;
65358;SDS011;52491;45.900;6.346;2024-02-23T03:45:23;1.10;;;0.73;;
65358;SDS011;52491;45.900;6.346;2024-02-23T03:47:49;1.90;;;0.95;;
65358;SDS011;52491;45.900;6.346;2024-02-23T03:50:14;0.90;;;0.60;;
65358;SDS011;52491;45.900;6.346;2024-02-23T03:52:40;0.77;;;0.57;;
65358;SDS011;52491;45.900;6.346;2024-02-23T03:55:06;1.20;;;1.10;;
65358;SDS011;52491;45.900;6.346;2024-02-23T03:57:32;1.23;;;0.90;;
65358;SDS011;52491;45.900;6.346;2024-02-23T03:59:58;1.77;;;1.02;;
65358;SDS011;52491;45.900;6.346;2024-02-23T04:02:24;0.80;;;0.77;;
65358;SDS011;52491;45.900;6.346;2024-02-23T04:04:49;0.77;;;0.75;;
65358;SDS011;52491;45.900;6.346;2024-02-23T04:07:15;0.65;;;0.65;;
65358;SDS011;52491;45.900;6.346;2024-02-23T04:09:41;1.17;;;1.02;;
65358;SDS011;52491;45.900;6.346;2024-02-23T04:12:06;1.42;;;1.00;;
65358;SDS011;52491;45.900;6.346;2024-02-23T04:14:32;2.15;;;1.55;;
65358;SDS011;52491;45.900;6.346;2024-02-23T04:17:02;0.90;;;0.80;;
65358;SDS011;52491;45.900;6.346;2024-02-23T04:19:28;1.52;;;1.10;;
65358;SDS011;52491;45.900;6.346;2024-02-23T04:21:54;0.65;;;0.65;;
65358;SDS011;52491;45.900;6.346;2024-02-23T04:24:20;1.48;;;0.93;;
65358;SDS011;52491;45.900;6.346;2024-02-23T04:26:46;1.08;;;0.98;;
65358;SDS011;52491;45.900;6.346;2024-02-23T04:29:11;1.73;;;1.05;;
65358;SDS011;52491;45.900;6.346;2024-02-23T04:31:37;1.52;;;1.00;;
65358;SDS011;52491;45.900;6.346;2024-02-23T04:34:03;1.42;;;1.10;;
65358;SDS011;52491;45.900;6.346;2024-02-23T04:36:28;2.75;;;1.55;;
65358;SDS011;52491;45.900;6.346;2024-02-23T04:38:54;2.13;;;1.20;;
65358;SDS011;52491;45.900;6.346;2024-02-23T04:41:20;4.10;;;1.30;;
65358;SDS011;52491;45.900;6.346;2024-02-23T04:43:47;1.75;;;1.20;;
65358;SDS011;52491;45.900;6.346;2024-02-23T04:46:13;2.05;;;1.13;;
65358;SDS011;52491;45.900;6.346;2024-02-23T04:48:39;1.40;;;1.10;;
65358;SDS011;52491;45.900;6.346;2024-02-23T04:51:04;2.08;;;1.30;;
65358;SDS011;52491;45.900;6.346;2024-02-23T04:53:31;2.05;;;1.30;;
65358;SDS011;52491;45.900;6.346;2024-02-23T04:55:57;3.30;;;1.58;;
65358;SDS011;52491;45.900;6.346;2024-02-23T04:58:23;2.05;;;1.00;;
65358;SDS011;52491;45.900;6.346;2024-02-23T05:00:48;1.00;;;0.98;;
65358;SDS011;52491;45.900;6.346;2024-02-23T05:03:14;13.60;;;1.30;;
65358;SDS011;52491;45.900;6.346;2024-02-23T05:05:41;1.95;;;1.00;;
65358;SDS011;52491;45.900;6.346;2024-02-23T05:08:06;2.30;;;1.85;;
65358;SDS011;52491;45.900;6.346;2024-02-23T05:10:32;1.48;;;1.25;;
65358;SDS011;52491;45.900;6.346;2024-02-23T05:12:58;1.88;;;1.05;;
65358;SDS011;52491;45.900;6.346;2024-02-23T05:15:23;1.80;;;1.17;;
65358;SDS011;52491;45.900;6.346;2024-02-23T05:17:49;2.17;;;1.63;;
65358;SDS011;52491;45.900;6.346;2024-02-23T05:20:14;1.38;;;1.02;;
65358;SDS011;52491;45.900;6.346;2024-02-23T05:22:40;1.48;;;1.08;;
65358;SDS011;52491;45.900;6.346;2024-02-23T05:25:06;1.35;;;1.17;;
65358;SDS011;52491;45.900;6.346;2024-02-23T05:27:32;1.98;;;1.33;;
65358;SDS011;52491;45.900;6.346;2024-02-23T05:29:58;1.50;;;1.40;;
65358;SDS011;52491;45.900;6.346;2024-02-23T05:32:24;2.10;;;1.48;;
65358;SDS011;52491;45.900;6.346;2024-02-23T05:34:49;2.65;;;1.27;;
65358;SDS011;52491;45.900;6.346;2024-02-23T05:37:18;1.40;;;1.30;;
65358;SDS011;52491;45.900;6.346;2024-02-23T05:39:44;2.58;;;1.63;;
65358;SDS011;52491;45.900;6.346;2024-02-23T05:42:11;1.90;;;1.40;;
65358;SDS011;52491;45.900;6.346;2024-02-23T05:44:38;1.77;;;1.63;;
65358;SDS011;52491;45.900;6.346;2024-02-23T05:47:04;2.10;;;1.42;;
65358;SDS011;52491;45.900;6.346;2024-02-23T05:49:30;2.22;;;1.58;;
65358;SDS011;52491;45.900;6.346;2024-02-23T05:51:56;1.98;;;1.55;;
65358;SDS011;52491;45.900;6.346;2024-02-23T05:54:22;3.10;;;2.05;;
65358;SDS011;52491;45.900;6.346;2024-02-23T05:56:48;1.77;;;1.42;;
65358;SDS011;52491;45.900;6.346;2024-02-23T05:59:15;1.65;;;1.55;;
65358;SDS011;52491;45.900;6.346;2024-02-23T06:01:40;2.10;;;1.48;;
65358;SDS011;52491;45.900;6.346;2024-02-23T06:04:06;1.77;;;1.50;;
65358;SDS011;52491;45.900;6.346;2024-02-23T06:06:32;3.25;;;1.40;;
65358;SDS011;52491;45.900;6.346;2024-02-23T06:08:57;3.15;;;2.00;;
65358;SDS011;52491;45.900;6.346;2024-02-23T06:11:23;3.75;;;2.03;;
65358;SDS011;52491;45.900;6.346;2024-02-23T06:13:49;2.05;;;1.50;;
65358;SDS011;52491;45.900;6.346;2024-02-23T06:16:15;1.33;;;1.23;;
65358;SDS011;52491;45.900;6.346;2024-02-23T06:18:41;1.40;;;1.30;;
65358;SDS011;52491;45.900;6.346;2024-02-23T06:23:33;3.20;;;1.90;;
65358;SDS011;52491;45.900;6.346;2024-02-23T06:25:59;2.03;;;1.60;;
65358;SDS011;52491;45.900;6.346;2024-02-23T06:28:25;1.67;;;1.35;;
65358;SDS011;52491;45.900;6.346;2024-02-23T06:30:50;1.52;;;1.38;;
65358;SDS011;52491;45.900;6.346;2024-02-23T06:33:19;1.55;;;1.25;;
65358;SDS011;52491;45.900;6.346;2024-02-23T06:35:44;2.28;;;1.52;;
65358;SDS011;52491;45.900;6.346;2024-02-23T06:38:10;1.80;;;1.65;;
65358;SDS011;52491;45.900;6.346;2024-02-23T06:40:36;1.52;;;1.33;;
65358;SDS011;52491;45.900;6.346;2024-02-23T06:43:02;2.08;;;1.45;;
65358;SDS011;52491;45.900;6.346;2024-02-23T06:45:28;2.03;;;1.83;;
65358;SDS011;52491;45.900;6.346;2024-02-23T06:47:53;3.22;;;1.95;;
65358;SDS011;52491;45.900;6.346;2024-02-23T06:50:19;2.20;;;1.67;;
65358;SDS011;52491;45.900;6.346;2024-02-23T06:52:45;2.38;;;1.52;;
65358;SDS011;52491;45.900;6.346;2024-02-23T06:55:12;2.10;;;1.75;;
65358;SDS011;52491;45.900;6.346;2024-02-23T06:57:38;1.80;;;1.42;;
65358;SDS011;52491;45.900;6.346;2024-02-23T07:00:03;2.70;;;1.15;;
65358;SDS011;52491;45.900;6.346;2024-02-23T07:02:30;2.30;;;1.38;;
65358;SDS011;52491;45.900;6.346;2024-02-23T07:04:59;2.53;;;1.70;;
65358;SDS011;52491;45.900;6.346;2024-02-23T07:07:24;2.22;;;1.65;;
65358;SDS011;52491;45.900;6.346;2024-02-23T07:09:50;1.95;;;1.60;;
65358;SDS011;52491;45.900;6.346;2024-02-23T07:12:17;2.35;;;1.67;;
65358;SDS011;52491;45.900;6.346;2024-02-23T07:14:42;3.85;;;1.30;;
65358;SDS011;52491;45.900;6.346;2024-02-23T07:17:08;1.67;;;1.25;;
65358;SDS011;52491;45.900;6.346;2024-02-23T07:19:34;2.10;;;1.73;;
65358;SDS011;52491;45.900;6.346;2024-02-23T07:21:59;1.05;;;1.00;;
65358;SDS011;52491;45.900;6.346;2024-02-23T07:24:25;1.90;;;1.63;;
65358;SDS011;52491;45.900;6.346;2024-02-23T07:26:50;1.70;;;1.40;;
65358;SDS011;52491;45.900;6.346;2024-02-23T07:29:16;1.70;;;1.25;;
65358;SDS011;52491;45.900;6.346;2024-02-23T07:31:42;2.72;;;1.20;;
65358;SDS011;52491;45.900;6.346;2024-02-23T07:34:08;2.15;;;1.45;;
65358;SDS011;52491;45.900;6.346;2024-02-23T07:36:34;1.27;;;1.17;;
65358;SDS011;52491;45.900;6.346;2024-02-23T07:38:59;1.33;;;1.05;;
65358;SDS011;52491;45.900;6.346;2024-02-23T07:41:25;1.40;;;1.30;;
65358;SDS011;52491;45.900;6.346;2024-02-23T07:43:51;1.38;;;1.27;;
65358;SDS011;52491;45.900;6.346;2024-02-23T07:46:16;1.90;;;1.20;;
65358;SDS011;52491;45.900;6.346;2024-02-23T07:48:42;1.88;;;1.48;;
65358;SDS011;52491;45.900;6.346;2024-02-23T07:51:09;1.88;;;1.65;;
65358;SDS011;52491;45.900;6.346;2024-02-23T07:53:35;1.77;;;1.38;;
65358;SDS011;52491;45.900;6.346;2024-02-23T07:56:00;2.70;;;1.40;;
65358;SDS011;52491;45.900;6.346;2024-02-23T07:58:27;1.50;;;1.40;;
65358;SDS011;52491;45.900;6.346;2024-02-23T08:00:53;1.85;;;1.33;;
65358;SDS011;52491;45.900;6.346;2024-02-23T08:03:19;1.85;;;1.63;;
65358;SDS011;52491;45.900;6.346;2024-02-23T08:05:45;2.00;;;1.15;;
65358;SDS011;52491;45.900;6.346;2024-02-23T08:08:10;1.60;;;1.48;;
65358;SDS011;52491;45.900;6.346;2024-02-23T08:10:36;1.38;;;1.08;;
65358;SDS011;52491;45.900;6.346;2024-02-23T08:13:02;1.85;;;1.20;;
65358;SDS011;52491;45.900;6.346;2024-02-23T08:15:27;1.98;;;1.30;;
65358;SDS011;52491;45.900;6.346;2024-02-23T08:17:53;5.50;;;1.33;;
65358;SDS011;52491;45.900;6.346;2024-02-23T08:20:19;1.63;;;1.35;;
65358;SDS011;52491;45.900;6.346;2024-02-23T08:22:44;1.83;;;1.10;;
65358;SDS011;52491;45.900;6.346;2024-02-23T08:25:10;1.70;;;1.30;;
65358;SDS011;52491;45.900;6.346;2024-02-23T08:27:36;1.48;;;1.13;;
65358;SDS011;52491;45.900;6.346;2024-02-23T08:30:04;1.65;;;1.48;;
65358;SDS011;52491;45.900;6.346;2024-02-23T08:32:30;2.35;;;1.63;;
65358;SDS011;52491;45.900;6.346;2024-02-23T08:34:56;1.77;;;1.10;;
65358;SDS011;52491;45.900;6.346;2024-02-23T08:37:25;1.55;;;1.10;;
65358;SDS011;52491;45.900;6.346;2024-02-23T08:39:51;1.73;;;1.15;;
65358;SDS011;52491;45.900;6.346;2024-02-23T08:42:18;2.45;;;1.55;;
65358;SDS011;52491;45.900;6.346;2024-02-23T08:44:43;1.85;;;1.15;;
65358;SDS011;52491;45.900;6.346;2024-02-23T08:47:09;1.05;;;1.05;;
65358;SDS011;52491;45.900;6.346;2024-02-23T08:49:35;1.77;;;1.35;;
65358;SDS011;52491;45.900;6.346;2024-02-23T08:52:00;3.08;;;1.90;;
65358;SDS011;52491;45.900;6.346;2024-02-23T08:54:27;1.92;;;1.30;;
65358;SDS011;52491;45.900;6.346;2024-02-23T08:56:53;1.77;;;1.38;;
65358;SDS011;52491;45.900;6.346;2024-02-23T08:59:19;1.75;;;1.30;;
65358;SDS011;52491;45.900;6.346;2024-02-23T09:01:44;1.60;;;1.40;;
65358;SDS011;52491;45.900;6.346;2024-02-23T09:04:12;2.10;;;1.40;;
65358;SDS011;52491;45.900;6.346;2024-02-23T09:06:38;2.42;;;1.13;;
65358;SDS011;52491;45.900;6.346;2024-02-23T09:09:04;1.27;;;1.17;;
65358;SDS011;52491;45.900;6.346;2024-02-23T09:11:29;1.40;;;1.30;;
65358;SDS011;52491;45.900;6.346;2024-02-23T09:13:55;2.30;;;1.75;;
65358;SDS011;52491;45.900;6.346;2024-02-23T09:16:21;1.50;;;1.30;;
65358;SDS011;52491;45.900;6.346;2024-02-23T09:18:52;2.13;;;1.10;;
65358;SDS011;52491;45.900;6.346;2024-02-23T09:21:18;1.65;;;1.50;;
65358;SDS011;52491;45.900;6.346;2024-02-23T09:23:44;1.60;;;1.50;;
65358;SDS011;52491;45.900;6.346;2024-02-23T09:26:11;1.60;;;1.50;;
65358;SDS011;52491;45.900;6.346;2024-02-23T09:28:37;2.17;;;1.38;;
65358;SDS011;52491;45.900;6.346;2024-02-23T09:31:03;0.80;;;0.80;;
65358;SDS011;52491;45.900;6.346;2024-02-23T09:33:30;3.47;;;1.20;;
65358;SDS011;52491;45.900;6.346;2024-02-23T09:35:56;1.50;;;1.40;;
65358;SDS011;52491;45.900;6.346;2024-02-23T09:38:22;1.33;;;1.23;;
65358;SDS011;52491;45.900;6.346;2024-02-23T09:40:50;1.70;;;1.33;;
65358;SDS011;52491;45.900;6.346;2024-02-23T09:43:16;2.83;;;1.23;;
65358;SDS011;52491;45.900;6.346;2024-02-23T09:45:43;1.33;;;1.23;;
65358;SDS011;52491;45.900;6.346;2024-02-23T09:48:10;1.40;;;1.30;;
65358;SDS011;52491;45.900;6.346;2024-02-23T09:50:38;1.13;;;1.05;;
65358;SDS011;52491;45.900;6.346;2024-02-23T09:53:07;2.53;;;1.50;;
65358;SDS011;52491;45.900;6.346;2024-02-23T09:55:36;1.38;;;1.15;;
65358;SDS011;52491;45.900;6.346;2024-02-23T09:58:01;1.45;;;1.23;;
65358;SDS011;52491;45.900;6.346;2024-02-23T10:00:29;1.55;;;1.20;;
65358;SDS011;52491;45.900;6.346;2024-02-23T10:02:56;1.42;;;1.33;;
65358;SDS011;52491;45.900;6.346;2024-02-23T10:05:23;2.17;;;1.48;;
65358;SDS011;52491;45.900;6.346;2024-02-23T10:07:55;2.25;;;1.42;;
65358;SDS011;52491;45.900;6.346;2024-02-23T10:10:35;1.05;;;0.90;;
65358;SDS011;52491;45.900;6.346;2024-02-23T10:13:02;1.33;;;1.23;;
65358;SDS011;52491;45.900;6.346;2024-02-23T10:15:30;1.10;;;1.00;;
65358;SDS011;52491;45.900;6.346;2024-02-23T10:17:56;1.73;;;1.20;;
65358;SDS011;52491;45.900;6.346;2024-02-23T10:20:22;1.23;;;1.02;;
65358;SDS011;52491;45.900;6.346;2024-02-23T10:22:48;0.73;;;0.73;;
65358;SDS011;52491;45.900;6.346;2024-02-23T10:25:13;1.88;;;1.67;;
65358;SDS011;52491;45.900;6.346;2024-02-23T10:27:40;0.77;;;0.77;;
65358;SDS011;52491;45.900;6.346;2024-02-23T10:30:08;1.05;;;1.00;;
65358;SDS011;52491;45.900;6.346;2024-02-23T10:32:37;1.25;;;1.15;;
65358;SDS011;52491;45.900;6.346;2024-02-23T10:35:04;1.33;;;1.02;;
65358;SDS011;52491;45.900;6.346;2024-02-23T10:37:38;1.75;;;1.10;;
65358;SDS011;52491;45.900;6.346;2024-02-23T10:40:05;1.27;;;0.88;;
65358;SDS011;52491;45.900;6.346;2024-02-23T10:42:35;1.50;;;1.05;;
65358;SDS011;52491;45.900;6.346;2024-02-23T10:45:03;1.23;;;0.80;;
65358;SDS011;52491;45.900;6.346;2024-02-23T10:47:31;2.42;;;0.77;;
65358;SDS011;52491;45.900;6.346;2024-02-23T10:50:00;1.10;;;0.90;;
65358;SDS011;52491;45.900;6.346;2024-02-23T10:52:26;0.98;;;0.88;;
65358;SDS011;52491;45.900;6.346;2024-02-23T10:54:53;1.23;;;1.02;;
65358;SDS011;52491;45.900;6.346;2024-02-23T10:57:19;0.95;;;0.80;;
65358;SDS011;52491;45.900;6.346;2024-02-23T10:59:46;1.10;;;0.90;;
65358;SDS011;52491;45.900;6.346;2024-02-23T11:02:13;1.52;;;1.05;;
65358;SDS011;52491;45.900;6.346;2024-02-23T11:04:44;1.00;;;0.90;;
65358;SDS011;52491;45.900;6.346;2024-02-23T11:07:15;1.15;;;0.90;;
65358;SDS011;52491;45.900;6.346;2024-02-23T11:09:48;0.88;;;0.88;;
65358;SDS011;52491;45.900;6.346;2024-02-23T11:14:44;0.75;;;0.75;;
65358;SDS011;52491;45.900;6.346;2024-02-23T11:17:17;0.70;;;0.70;;
65358;SDS011;52491;45.900;6.346;2024-02-23T11:19:45;0.75;;;0.60;;
65358;SDS011;52491;45.900;6.346;2024-02-23T11:22:12;0.70;;;0.70;;
65358;SDS011;52491;45.900;6.346;2024-02-23T11:24:42;1.30;;;0.70;;
65358;SDS011;52491;45.900;6.346;2024-02-23T11:27:13;0.90;;;0.70;;
65358;SDS011;52491;45.900;6.346;2024-02-23T11:29:39;0.82;;;0.75;;
65358;SDS011;52491;45.900;6.346;2024-02-23T11:32:13;1.05;;;0.60;;
65358;SDS011;52491;45.900;6.346;2024-02-23T11:34:39;0.88;;;0.80;;
65358;SDS011;52491;45.900;6.346;2024-02-23T11:39:33;0.80;;;0.80;;
65358;SDS011;52491;45.900;6.346;2024-02-23T11:42:02;1.10;;;0.70;;
65358;SDS011;52491;45.900;6.346;2024-02-23T11:44:29;0.85;;;0.80;;
65358;SDS011;52491;45.900;6.346;2024-02-23T11:46:55;0.60;;;0.50;;
65358;SDS011;52491;45.900;6.346;2024-02-23T11:49:22;0.73;;;0.73;;
65358;SDS011;52491;45.900;6.346;2024-02-23T11:51:53;0.60;;;0.60;;
65358;SDS011;52491;45.900;6.346;2024-02-23T11:54:19;0.50;;;0.50;;
65358;SDS011;52491;45.900;6.346;2024-02-23T11:56:45;0.70;;;0.70;;
65358;SDS011;52491;45.900;6.346;2024-02-23T11:59:11;2.15;;;0.68;;
65358;SDS011;52491;45.900;6.346;2024-02-23T12:01:38;1.10;;;0.70;;
65358;SDS011;52491;45.900;6.346;2024-02-23T12:04:04;1.98;;;0.70;;
65358;SDS011;52491;45.900;6.346;2024-02-23T12:06:30;36.35;;;11.65;;
65358;SDS011;52491;45.900;6.346;2024-02-23T12:08:57;37.53;;;11.45;;
65358;SDS011;52491;45.900;6.346;2024-02-23T12:11:23;41.38;;;13.57;;
65358;SDS011;52491;45.900;6.346;2024-02-23T12:13:50;35.25;;;11.82;;
65358;SDS011;52491;45.900;6.346;2024-02-23T12:16:16;40.83;;;12.35;;
65358;SDS011;52491;45.900;6.346;2024-02-23T12:18:42;36.35;;;11.40;;
65358;SDS011;52491;45.900;6.346;2024-02-23T12:21:08;26.77;;;12.18;;
65358;SDS011;52491;45.900;6.346;2024-02-23T12:26:01;24.38;;;10.73;;
65358;SDS011;52491;45.900;6.346;2024-02-23T12:28:27;22.80;;;10.55;;
65358;SDS011;52491;45.900;6.346;2024-02-23T12:33:32;31.50;;;11.70;;
65358;SDS011;52491;45.900;6.346;2024-02-23T12:36:00;26.67;;;9.73;;
65358;SDS011;52491;45.900;6.346;2024-02-23T12:38:26;26.52;;;11.25;;
65358;SDS011;52491;45.900;6.346;2024-02-23T12:40:52;29.05;;;10.82;;
65358;SDS011;52491;45.900;6.346;2024-02-23T12:43:18;29.75;;;8.93;;
65358;SDS011;52491;45.900;6.346;2024-02-23T12:45:47;29.83;;;9.70;;
65358;SDS011;52491;45.900;6.346;2024-02-23T12:48:15;17.02;;;8.52;;
65358;SDS011;52491;45.900;6.346;2024-02-23T12:50:41;22.48;;;7.97;;
65358;SDS011;52491;45.900;6.346;2024-02-23T12:53:08;23.63;;;8.40;;
65358;SDS011;52491;45.900;6.346;2024-02-23T12:55:35;18.33;;;7.47;;
65358;SDS011;52491;45.900;6.346;2024-02-23T12:58:02;22.02;;;7.85;;
65358;SDS011;52491;45.900;6.346;2024-02-23T13:00:28;16.60;;;7.05;;
65358;SDS011;52491;45.900;6.346;2024-02-23T13:02:54;17.60;;;7.25;;
65358;SDS011;52491;45.900;6.346;2024-02-23T13:05:19;19.92;;;7.30;;
65358;SDS011;52491;45.900;6.346;2024-02-23T13:07:45;16.70;;;6.57;;
65358;SDS011;52491;45.900;6.346;2024-02-23T13:10:12;21.23;;;7.65;;
65358;SDS011;52491;45.900;6.346;2024-02-23T13:12:38;18.58;;;7.60;;
65358;SDS011;52491;45.900;6.346;2024-02-23T13:15:04;12.73;;;6.25;;
65358;SDS011;52491;45.900;6.346;2024-02-23T13:17:30;16.00;;;6.38;;
65358;SDS011;52491;45.900;6.346;2024-02-23T13:19:55;13.75;;;6.38;;
65358;SDS011;52491;45.900;6.346;2024-02-23T13:22:21;16.02;;;6.32;;
65358;SDS011;52491;45.900;6.346;2024-02-23T13:24:47;11.98;;;6.40;;
65358;SDS011;52491;45.900;6.346;2024-02-23T13:27:12;20.00;;;6.53;;
65358;SDS011;52491;45.900;6.346;2024-02-23T13:29:38;17.42;;;6.50;;
65358;SDS011;52491;45.900;6.346;2024-02-23T13:32:03;13.02;;;5.05;;
65358;SDS011;52491;45.900;6.346;2024-02-23T13:34:29;15.73;;;6.35;;
65358;SDS011;52491;45.900;6.346;2024-02-23T13:36:55;12.77;;;5.47;;
65358;SDS011;52491;45.900;6.346;2024-02-23T13:39:21;13.38;;;5.15;;
65358;SDS011;52491;45.900;6.346;2024-02-23T13:41:47;16.60;;;6.28;;
65358;SDS011;52491;45.900;6.346;2024-02-23T13:44:12;13.27;;;5.65;;
65358;SDS011;52491;45.900;6.346;2024-02-23T13:46:38;13.77;;;5.70;;
65358;SDS011;52491;45.900;6.346;2024-02-23T13:49:05;13.23;;;5.22;;
65358;SDS011;52491;45.900;6.346;2024-02-23T13:51:32;10.07;;;5.00;;
65358;SDS011;52491;45.900;6.346;2024-02-23T13:53:59;13.57;;;5.80;;
65358;SDS011;52491;45.900;6.346;2024-02-23T13:56:25;9.85;;;4.70;;
65358;SDS011;52491;45.900;6.346;2024-02-23T13:58:50;8.82;;;4.30;;
65358;SDS011;52491;45.900;6.346;2024-02-23T14:01:17;11.10;;;5.05;;
65358;SDS011;52491;45.900;6.346;2024-02-23T14:03:43;10.88;;;4.78;;
65358;SDS011;52491;45.900;6.346;2024-02-23T14:06:08;13.82;;;4.95;;
65358;SDS011;52491;45.900;6.346;2024-02-23T14:08:34;9.00;;;4.57;;
65358;SDS011;52491;45.900;6.346;2024-02-23T14:11:02;10.80;;;4.55;;
65358;SDS011;52491;45.900;6.346;2024-02-23T14:13:31;8.23;;;4.45;;
65358;SDS011;52491;45.900;6.346;2024-02-23T14:15:57;11.00;;;4.25;;
65358;SDS011;52491;45.900;6.346;2024-02-23T14:18:23;12.38;;;4.90;;
65358;SDS011;52491;45.900;6.346;2024-02-23T14:20:49;9.82;;;4.28;;
65358;SDS011;52491;45.900;6.346;2024-02-23T14:23:17;11.95;;;4.20;;
65358;SDS011;52491;45.900;6.346;2024-02-23T14:25:43;7.28;;;3.80;;
65358;SDS011;52491;45.900;6.346;2024-02-23T14:28:08;7.85;;;3.67;;
65358;SDS011;52491;45.900;6.346;2024-02-23T14:30:35;8.93;;;3.67;;
65358;SDS011;52491;45.900;6.346;2024-02-23T14:33:01;8.45;;;4.40;;
65358;SDS011;52491;45.900;6.346;2024-02-23T14:35:27;9.70;;;3.85;;
65358;SDS011;52491;45.900;6.346;2024-02-23T14:37:52;7.57;;;3.53;;
65358;SDS011;52491;45.900;6.346;2024-02-23T14:40:18;10.45;;;3.50;;
65358;SDS011;52491;45.900;6.346;2024-02-23T14:42:44;6.63;;;3.38;;
65358;SDS011;52491;45.900;6.346;2024-02-23T14:45:10;8.65;;;3.47;;
65358;SDS011;52491;45.900;6.346;2024-02-23T14:47:38;12.70;;;3.13;;
65358;SDS011;52491;45.900;6.346;2024-02-23T14:50:04;4.63;;;2.72;;
65358;SDS011;52491;45.900;6.346;2024-02-23T14:52:31;5.60;;;3.47;;
65358;SDS011;52491;45.900;6.346;2024-02-23T14:54:57;8.77;;;4.07;;
65358;SDS011;52491;45.900;6.346;2024-02-23T14:57:23;8.23;;;3.28;;